createdAt,value
2022-09-17T00:01:25.001Z,10.89
2022-09-17T00:03:53.873Z,11.02
2022-09-17T00:06:21.880Z,10.85
2022-09-17T00:08:48.474Z,10.80
2022-09-17T00:11:20.957Z,10.89
2022-09-17T00:13:49.632Z,10.77
2022-09-17T00:16:28.125Z,10.96
2022-09-17T00:18:55.562Z,10.91
2022-09-17T00:21:23.059Z,11.02
2022-09-17T00:23:53.833Z,10.78
2022-09-17T00:26:20.683Z,10.94
2022-09-17T00:28:52.485Z,10.54
2022-09-17T00:31:19.755Z,10.69
2022-09-17T00:33:46.453Z,10.32
2022-09-17T00:36:13.377Z,10.51
2022-09-17T00:38:40.267Z,10.64
2022-09-17T00:41:08.332Z,10.56
2022-09-17T00:44:33.981Z,10.63
2022-09-17T00:47:00.640Z,10.77
2022-09-17T00:49:30.451Z,10.78
2022-09-17T00:52:14.338Z,10.71
2022-09-17T00:54:46.322Z,10.59
2022-09-17T00:57:12.965Z,10.65
2022-09-17T00:59:39.780Z,10.27
2022-09-17T01:02:06.916Z,10.50
2022-09-17T01:04:33.638Z,10.44
2022-09-17T01:07:09.421Z,10.47
2022-09-17T01:09:56.420Z,10.45
2022-09-17T01:12:52.177Z,10.52
2022-09-17T01:15:26.139Z,10.62
2022-09-17T01:18:11.290Z,10.60
2022-09-17T01:20:43.816Z,10.47
2022-09-17T01:23:49.713Z,10.40
2022-09-17T01:26:18.970Z,10.51
2022-09-17T01:28:52.305Z,10.51
2022-09-17T01:31:57.530Z,10.42
2022-09-17T01:34:36.266Z,10.24
2022-09-17T01:37:11.206Z,10.30
2022-09-17T01:39:54.021Z,10.36
2022-09-17T01:42:38.498Z,10.45
2022-09-17T01:45:17.517Z,10.06
2022-09-17T01:47:48.076Z,10.63
2022-09-17T01:50:21.020Z,10.74
2022-09-17T01:52:50.387Z,10.84
2022-09-17T01:55:19.537Z,10.83
2022-09-17T01:57:57.960Z,10.82
2022-09-17T02:00:24.895Z,10.66
2022-09-17T02:03:06.754Z,10.88
2022-09-17T02:05:45.378Z,10.94
2022-09-17T02:08:24.494Z,10.94
2022-09-17T02:10:58.409Z,10.84
2022-09-17T02:13:28.088Z,10.27
2022-09-17T02:16:07.511Z,10.26
2022-09-17T02:18:51.396Z,10.42
2022-09-17T02:21:23.148Z,10.56
2022-09-17T02:24:11.019Z,10.47
2022-09-17T02:26:42.815Z,10.35
2022-09-17T02:29:17.575Z,10.30
2022-09-17T02:31:44.286Z,10.26
2022-09-17T02:34:11.251Z,10.07
2022-09-17T02:36:37.842Z,10.27
2022-09-17T02:39:04.821Z,10.23
2022-09-17T02:41:44.919Z,10.20
2022-09-17T02:44:26.416Z,10.16
2022-09-17T02:47:11.575Z,10.08
2022-09-17T02:50:03.062Z,10.11
2022-09-17T02:52:59.155Z,10.11
2022-09-17T02:55:49.592Z,10.12
2022-09-17T02:58:35.825Z,10.13
2022-09-17T03:01:10.274Z,10.09
2022-09-17T03:03:45.873Z,10.12
2022-09-17T03:06:13.734Z,10.09
2022-09-17T03:08:42.112Z,10.01
2022-09-17T03:11:11.096Z,10.03
2022-09-17T03:13:46.978Z,9.94
2022-09-17T03:16:13.631Z,9.76
2022-09-17T03:18:40.267Z,9.76
2022-09-17T03:21:07.056Z,9.86
2022-09-17T03:23:33.814Z,9.75
2022-09-17T03:26:01.167Z,9.81
2022-09-17T03:28:27.856Z,9.82
2022-09-17T03:30:54.573Z,9.36
2022-09-17T03:33:21.307Z,9.81
2022-09-17T03:35:48.247Z,9.88
2022-09-17T03:38:15.427Z,9.93
2022-09-17T03:40:42.331Z,9.85
2022-09-17T03:43:09.280Z,10.12
2022-09-17T03:45:36.013Z,10.07
2022-09-17T03:48:02.595Z,10.12
2022-09-17T03:50:29.299Z,10.12
2022-09-17T03:52:55.893Z,10.13
2022-09-17T03:55:22.494Z,9.99
2022-09-17T03:57:49.103Z,9.82
2022-09-17T04:00:17.348Z,9.95
2022-09-17T04:02:44.260Z,9.94
2022-09-17T04:05:11.342Z,9.92
2022-09-17T04:07:40.059Z,9.88
2022-09-17T04:10:07.551Z,9.81
2022-09-17T04:12:34.157Z,9.82
2022-09-17T04:15:00.756Z,9.84
2022-09-17T04:17:27.935Z,9.76
2022-09-17T04:19:55.169Z,9.87
2022-09-17T04:22:21.809Z,9.84
2022-09-17T04:24:48.369Z,9.86
2022-09-17T04:27:15.071Z,9.71
2022-09-17T04:29:41.656Z,9.43
2022-09-17T04:32:08.744Z,9.70
2022-09-17T04:34:35.417Z,9.83
2022-09-17T04:37:01.993Z,9.84
2022-09-17T04:39:28.765Z,9.81
2022-09-17T04:41:55.414Z,9.84
2022-09-17T04:44:21.994Z,9.69
2022-09-17T04:46:48.683Z,9.70
2022-09-17T04:49:15.388Z,9.82
2022-09-17T04:51:42.020Z,9.21
2022-09-17T04:54:08.591Z,9.66
2022-09-17T04:56:35.174Z,9.77
2022-09-17T04:59:01.755Z,9.88
2022-09-17T05:01:28.393Z,9.89
2022-09-17T05:04:03.664Z,9.92
2022-09-17T05:06:30.251Z,9.94
2022-09-17T05:08:56.829Z,9.93
2022-09-17T05:11:23.452Z,9.58
2022-09-17T05:13:50.217Z,9.78
2022-09-17T05:16:17.137Z,9.99
2022-09-17T05:18:43.757Z,10.05
2022-09-17T05:21:10.364Z,9.61
2022-09-17T05:23:37.052Z,10.03
2022-09-17T05:26:03.723Z,10.07
2022-09-17T05:28:30.308Z,10.11
2022-09-17T05:31:00.872Z,10.13
2022-09-17T05:33:27.997Z,10.09
2022-09-17T05:35:54.671Z,9.38
2022-09-17T05:38:21.663Z,9.67
2022-09-17T05:40:49.079Z,9.81
2022-09-17T05:43:15.974Z,9.93
2022-09-17T05:45:42.796Z,10.02
2022-09-17T05:48:14.254Z,10.11
2022-09-17T05:50:41.503Z,10.20
2022-09-17T05:53:11.608Z,9.99
2022-09-17T05:55:40.429Z,9.25
2022-09-17T05:58:11.449Z,9.82
2022-09-17T06:00:38.699Z,9.79
2022-09-17T06:03:05.489Z,9.70
2022-09-17T06:05:32.386Z,9.58
2022-09-17T06:07:59.057Z,9.53
2022-09-17T06:10:25.837Z,9.41
2022-09-17T06:12:59.156Z,9.55
2022-09-17T06:15:27.341Z,9.10
2022-09-17T06:17:53.947Z,9.05
2022-09-17T06:20:21.168Z,9.59
2022-09-17T06:22:47.763Z,9.36
2022-09-17T06:25:15.055Z,9.24
2022-09-17T06:27:41.704Z,9.31
2022-09-17T06:30:08.588Z,9.63
2022-09-17T06:32:35.212Z,9.17
2022-09-17T06:35:01.961Z,8.45
2022-09-17T06:37:32.839Z,9.61
2022-09-17T06:39:59.769Z,9.63
2022-09-17T06:42:28.374Z,9.32
2022-09-17T06:44:58.858Z,9.70
2022-09-17T06:47:28.278Z,9.99
2022-09-17T06:49:56.971Z,10.13
2022-09-17T06:52:23.660Z,10.31
2022-09-17T06:54:50.324Z,9.87
2022-09-17T06:57:17.064Z,10.40
2022-09-17T06:59:43.681Z,10.07
2022-09-17T07:02:10.393Z,10.26
2022-09-17T07:04:37.103Z,10.78
2022-09-17T07:07:05.145Z,10.62
2022-09-17T07:09:31.760Z,10.69
2022-09-17T07:11:58.615Z,10.78
2022-09-17T07:14:25.268Z,10.85
2022-09-17T07:16:52.734Z,10.81
2022-09-17T07:19:19.403Z,11.05
2022-09-17T07:21:48.657Z,10.99
2022-09-17T07:24:15.248Z,10.94
2022-09-17T07:26:41.820Z,11.18
2022-09-17T07:29:08.574Z,11.19
2022-09-17T07:31:35.204Z,11.04
2022-09-17T07:34:01.847Z,11.04
2022-09-17T07:36:28.520Z,10.99
2022-09-17T07:38:55.116Z,10.89
2022-09-17T07:41:21.708Z,11.03
2022-09-17T07:43:48.297Z,11.21
2022-09-17T07:46:17.944Z,10.94
2022-09-17T07:48:47.705Z,11.36
2022-09-17T07:51:23.260Z,11.46
2022-09-17T07:53:54.573Z,11.45
2022-09-17T07:56:22.377Z,11.52
2022-09-17T07:58:50.669Z,11.79
2022-09-17T08:01:18.182Z,11.75
2022-09-17T08:03:50.182Z,11.67
2022-09-17T08:06:19.901Z,12.22
2022-09-17T08:08:46.599Z,12.20
2022-09-17T08:11:23.690Z,11.98
2022-09-17T08:13:59.794Z,11.56
2022-09-17T08:16:26.774Z,11.87
2022-09-17T08:18:57.647Z,12.25
2022-09-17T08:21:24.435Z,12.09
2022-09-17T08:23:51.055Z,12.30
2022-09-17T08:26:20.623Z,12.31
2022-09-17T08:28:54.976Z,12.41
2022-09-17T08:31:23.946Z,12.58
2022-09-17T08:33:51.071Z,12.67
2022-09-17T08:36:19.208Z,12.43
2022-09-17T08:38:46.013Z,12.43
2022-09-17T08:41:39.964Z,12.39
2022-09-17T08:44:30.373Z,12.51
2022-09-17T08:47:02.173Z,12.38
2022-09-17T08:49:36.687Z,12.15
2022-09-17T08:52:28.870Z,12.27
2022-09-17T08:55:21.944Z,12.34
2022-09-17T08:58:45.807Z,12.17
2022-09-17T09:01:21.550Z,12.20
2022-09-17T09:04:15.347Z,12.38
2022-09-17T09:06:51.477Z,12.53
2022-09-17T09:09:21.940Z,13.15
2022-09-17T09:11:52.528Z,13.36
2022-09-17T09:14:31.556Z,13.20
2022-09-17T09:17:03.400Z,12.99
2022-09-17T09:19:43.400Z,12.95
2022-09-17T09:22:34.844Z,13.25
2022-09-17T09:25:24.416Z,13.24
2022-09-17T09:28:16.801Z,13.04
2022-09-17T09:31:17.273Z,12.86
2022-09-17T09:33:47.843Z,13.01
2022-09-17T09:36:16.455Z,13.42
2022-09-17T09:38:50.992Z,13.71
2022-09-17T09:41:54.256Z,14.06
2022-09-17T09:44:23.111Z,14.24
2022-09-17T09:46:58.593Z,14.94
2022-09-17T09:49:35.277Z,14.66
2022-09-17T09:52:32.733Z,14.11
2022-09-17T09:55:05.320Z,13.69
2022-09-17T09:57:52.123Z,13.57
2022-09-17T10:00:26.840Z,13.76
2022-09-17T10:03:01.546Z,14.14
2022-09-17T10:05:28.608Z,16.08
2022-09-17T10:08:17.539Z,16.20
2022-09-17T10:10:56.731Z,15.59
2022-09-17T10:13:24.018Z,14.60
2022-09-17T10:15:50.791Z,14.44
2022-09-17T10:18:19.900Z,14.21
2022-09-17T10:21:04.609Z,14.41
2022-09-17T10:23:38.457Z,14.12
2022-09-17T10:26:06.231Z,14.08
2022-09-17T10:28:43.374Z,13.88
2022-09-17T10:31:10.776Z,13.54
2022-09-17T10:33:50.682Z,13.69
2022-09-17T10:36:37.807Z,15.22
2022-09-17T10:39:34.169Z,16.32
2022-09-17T10:42:11.165Z,16.06
2022-09-17T10:44:39.000Z,16.72
2022-09-17T10:47:16.811Z,17.37
2022-09-17T10:50:15.609Z,16.68
2022-09-17T10:52:48.544Z,16.41
2022-09-17T10:55:36.993Z,16.26
2022-09-17T10:58:09.834Z,16.19
2022-09-17T11:01:07.615Z,16.24
2022-09-17T11:03:43.372Z,15.95
2022-09-17T11:06:22.217Z,15.49
2022-09-17T11:09:06.939Z,15.02
2022-09-17T11:11:33.622Z,14.51
2022-09-17T11:14:12.457Z,14.16
2022-09-17T11:17:13.374Z,14.10
2022-09-17T11:20:08.120Z,14.08
2022-09-17T11:22:52.865Z,14.35
2022-09-17T11:25:19.498Z,15.34
2022-09-17T11:28:04.608Z,15.63
2022-09-17T11:30:48.334Z,15.71
2022-09-17T11:33:17.835Z,15.49
2022-09-17T11:35:51.294Z,15.08
2022-09-17T11:38:40.652Z,15.40
2022-09-17T11:41:36.321Z,15.62
2022-09-17T11:44:08.727Z,15.81
2022-09-17T11:47:07.984Z,16.13
2022-09-17T11:49:42.542Z,16.99
2022-09-17T11:52:12.885Z,16.75
2022-09-17T11:54:47.515Z,16.56
2022-09-17T11:57:18.436Z,16.36
2022-09-17T11:59:54.697Z,16.03
2022-09-17T12:02:37.937Z,16.05
2022-09-17T12:05:16.486Z,15.95
2022-09-17T12:07:50.511Z,15.90
2022-09-17T12:10:17.100Z,16.05
2022-09-17T12:12:52.960Z,15.95
2022-09-17T12:15:25.431Z,16.79
2022-09-17T12:18:31.063Z,17.24
2022-09-17T12:21:02.663Z,17.53
2022-09-17T12:24:07.404Z,17.55
2022-09-17T12:26:55.895Z,17.14
2022-09-17T12:29:57.077Z,17.22
2022-09-17T12:32:32.846Z,17.82
2022-09-17T12:36:05.927Z,17.47
2022-09-17T12:38:53.628Z,17.54
2022-09-17T12:41:44.227Z,17.30
2022-09-17T12:44:24.587Z,17.09
2022-09-17T12:47:25.141Z,16.84
2022-09-17T12:49:55.713Z,16.60
2022-09-17T12:52:45.072Z,16.53
2022-09-17T12:55:17.501Z,17.52
2022-09-17T12:58:05.348Z,17.95
2022-09-17T13:00:40.155Z,18.63
2022-09-17T13:03:19.731Z,18.39
2022-09-17T13:06:05.744Z,18.06
2022-09-17T13:08:41.814Z,17.55
2022-09-17T13:11:35.967Z,17.10
2022-09-17T13:14:11.360Z,16.98
2022-09-17T13:16:48.744Z,16.86
2022-09-17T13:19:24.803Z,16.66
2022-09-17T13:22:06.933Z,16.99
2022-09-17T13:24:34.908Z,17.18
2022-09-17T13:27:03.897Z,16.93
2022-09-17T13:29:45.877Z,17.60
2022-09-17T13:32:38.837Z,17.81
2022-09-17T13:35:11.537Z,16.80
2022-09-17T13:37:42.944Z,16.37
2022-09-17T13:40:26.696Z,16.24
2022-09-17T13:42:58.051Z,16.13
2022-09-17T13:45:26.433Z,16.48
2022-09-17T13:48:09.162Z,16.53
2022-09-17T13:50:38.882Z,16.58
2022-09-17T13:53:14.644Z,16.66
2022-09-17T13:55:51.475Z,16.68
2022-09-17T13:58:18.553Z,17.21
2022-09-17T14:00:58.675Z,17.02
2022-09-17T14:03:28.449Z,16.78
2022-09-17T14:05:55.712Z,17.10
2022-09-17T14:08:58.445Z,18.19
2022-09-17T14:11:32.397Z,18.10
2022-09-17T14:14:04.544Z,18.38
2022-09-17T14:16:37.494Z,17.45
2022-09-17T14:19:16.973Z,18.26
2022-09-17T14:22:20.158Z,18.15
2022-09-17T14:24:52.271Z,17.65
2022-09-17T14:27:42.223Z,17.75
2022-09-17T14:30:12.324Z,17.72
2022-09-17T14:32:42.197Z,17.37
2022-09-17T14:35:23.137Z,17.20
2022-09-17T14:37:57.833Z,17.15
2022-09-17T14:40:26.565Z,16.56
2022-09-17T14:42:56.760Z,16.08
2022-09-17T14:45:36.859Z,16.28
2022-09-17T14:48:35.013Z,16.15
2022-09-17T14:51:19.735Z,16.58
2022-09-17T14:54:14.375Z,16.94
2022-09-17T14:56:48.213Z,17.40
2022-09-17T14:59:25.884Z,17.41
2022-09-17T15:01:52.625Z,17.36
2022-09-17T15:04:25.870Z,17.82
2022-09-17T15:06:53.921Z,17.58
2022-09-17T15:09:25.791Z,17.69
2022-09-17T15:11:55.745Z,17.73
2022-09-17T15:14:27.688Z,17.52
2022-09-17T15:16:57.883Z,17.42
2022-09-17T15:19:33.397Z,17.31
2022-09-17T15:22:06.847Z,17.22
2022-09-17T15:24:39.211Z,17.40
2022-09-17T15:27:13.754Z,16.74
2022-09-17T15:29:45.301Z,16.49
2022-09-17T15:32:14.118Z,16.23
2022-09-17T15:35:30.349Z,15.96
2022-09-17T15:38:22.345Z,15.82
2022-09-17T15:40:50.035Z,15.75
2022-09-17T15:43:33.146Z,15.76
2022-09-17T15:46:25.769Z,15.69
2022-09-17T15:48:57.569Z,15.69
2022-09-17T15:51:37.090Z,15.75
2022-09-17T15:54:06.657Z,15.74
2022-09-17T15:56:39.351Z,15.67
2022-09-17T15:59:31.834Z,15.62
2022-09-17T16:02:01.688Z,15.31
2022-09-17T16:04:33.595Z,15.54
2022-09-17T16:07:29.781Z,15.34
2022-09-17T16:09:59.234Z,15.02
2022-09-17T16:12:28.981Z,14.90
2022-09-17T16:14:57.943Z,15.07
2022-09-17T16:17:36.756Z,15.07
2022-09-17T16:20:23.453Z,15.10
2022-09-17T16:22:51.828Z,15.04
2022-09-17T16:25:23.271Z,15.10
2022-09-17T16:27:50.038Z,15.13
2022-09-17T16:30:23.389Z,15.18
2022-09-17T16:32:50.649Z,15.17
2022-09-17T16:35:20.017Z,15.14
2022-09-17T16:37:52.616Z,15.04
2022-09-17T16:40:22.525Z,14.81
2022-09-17T16:42:49.788Z,14.92
2022-09-17T16:45:20.165Z,14.80
2022-09-17T16:47:46.850Z,14.94
2022-09-17T16:50:16.489Z,14.77
2022-09-17T16:52:44.632Z,14.70
2022-09-17T16:55:14.468Z,14.55
2022-09-17T16:57:41.569Z,14.47
2022-09-17T17:00:14.932Z,14.46
2022-09-17T17:02:41.898Z,14.39
2022-09-17T17:05:10.516Z,14.38
2022-09-17T17:07:37.664Z,14.37
2022-09-17T17:10:05.661Z,14.32
2022-09-17T17:12:32.320Z,14.25
2022-09-17T17:14:59.089Z,14.05
2022-09-17T17:17:25.892Z,14.20
2022-09-17T17:19:53.525Z,14.10
2022-09-17T17:22:20.215Z,14.02
2022-09-17T17:24:46.942Z,13.89
2022-09-17T17:27:14.501Z,13.68
2022-09-17T17:29:41.749Z,13.71
2022-09-17T17:32:08.657Z,13.82
2022-09-17T17:34:35.331Z,13.14
2022-09-17T17:37:02.063Z,11.77
2022-09-17T17:39:29.033Z,11.84
2022-09-17T17:41:56.245Z,11.62
2022-09-17T17:44:23.049Z,11.10
2022-09-17T17:46:49.860Z,11.24
2022-09-17T17:49:16.966Z,10.92
2022-09-17T17:51:43.660Z,11.15
2022-09-17T17:54:10.409Z,11.04
2022-09-17T17:56:37.108Z,10.91
2022-09-17T17:59:04.741Z,10.82
2022-09-17T18:01:34.950Z,10.90
2022-09-17T18:04:05.181Z,10.86
2022-09-17T18:06:31.856Z,10.80
2022-09-17T18:08:58.801Z,10.58
2022-09-17T18:11:25.983Z,10.70
2022-09-17T18:13:55.180Z,10.74
2022-09-17T18:16:22.995Z,10.53
2022-09-17T18:18:50.443Z,10.65
2022-09-17T18:21:22.358Z,10.67
2022-09-17T18:24:21.524Z,10.57
2022-09-17T18:26:51.285Z,10.83
2022-09-17T18:29:17.946Z,10.91
2022-09-17T18:31:45.147Z,10.93
2022-09-17T18:34:14.921Z,10.84
2022-09-17T18:36:42.400Z,10.76
2022-09-17T18:42:00.310Z,10.68
2022-09-17T18:44:26.977Z,10.76
2022-09-17T18:46:53.813Z,10.87
2022-09-17T18:49:20.586Z,10.78
2022-09-17T18:51:47.376Z,10.77
2022-09-17T18:54:14.089Z,10.59
2022-09-17T18:56:42.054Z,10.76
2022-09-17T18:59:09.473Z,10.79
2022-09-17T19:01:36.601Z,10.73
2022-09-17T19:04:11.207Z,10.84
2022-09-17T19:06:38.083Z,11.01
2022-09-17T19:09:05.526Z,10.74
2022-09-17T19:11:35.045Z,10.96
2022-09-17T19:14:01.942Z,11.08
2022-09-17T19:16:28.748Z,11.05
2022-09-17T19:18:55.612Z,10.98
2022-09-17T19:21:22.436Z,11.02
2022-09-17T19:23:51.447Z,11.06
2022-09-17T19:26:23.519Z,11.12
2022-09-17T19:28:57.914Z,11.01
2022-09-17T19:31:29.245Z,11.23
2022-09-17T19:33:56.783Z,11.29
2022-09-17T19:36:23.499Z,11.30
2022-09-17T19:38:50.195Z,11.40
2022-09-17T19:41:19.384Z,11.40
2022-09-17T19:43:46.814Z,11.39
2022-09-17T19:46:18.676Z,11.43
2022-09-17T19:48:50.648Z,11.44
2022-09-17T19:51:18.589Z,11.52
2022-09-17T19:53:45.704Z,11.45
2022-09-17T19:56:14.332Z,11.41
2022-09-17T19:58:41.424Z,11.51
2022-09-17T20:01:08.424Z,11.52
2022-09-17T20:03:35.535Z,11.63
2022-09-17T20:06:04.850Z,11.72
2022-09-17T20:08:32.585Z,11.73
2022-09-17T20:11:07.318Z,11.82
2022-09-17T20:13:34.242Z,11.90
2022-09-17T20:16:15.680Z,11.84
2022-09-17T20:18:43.946Z,11.80
2022-09-17T20:21:31.117Z,11.85
2022-09-17T20:23:58.849Z,11.92
2022-09-17T20:26:27.271Z,11.57
2022-09-17T20:28:54.803Z,11.98
2022-09-17T20:31:26.812Z,11.91
2022-09-17T20:33:55.173Z,11.80
2022-09-17T20:36:25.167Z,11.47
2022-09-17T20:39:17.964Z,11.74
2022-09-17T20:41:44.145Z,11.57
2022-09-17T20:44:10.851Z,11.29
2022-09-17T20:46:37.635Z,11.20
2022-09-17T20:49:05.381Z,11.15
2022-09-17T20:51:33.764Z,11.27
2022-09-17T20:54:03.606Z,11.19
2022-09-17T20:56:33.069Z,11.45
2022-09-17T20:59:13.473Z,11.41
2022-09-17T21:01:53.622Z,11.42
2022-09-17T21:04:21.845Z,11.49
2022-09-17T21:06:52.722Z,11.60
2022-09-17T21:09:19.780Z,11.70
2022-09-17T21:11:48.363Z,11.80
2022-09-17T21:14:33.154Z,11.92
2022-09-17T21:16:59.999Z,11.81
2022-09-17T21:19:26.732Z,11.79
2022-09-17T21:21:54.525Z,11.63
2022-09-17T21:24:21.116Z,11.51
2022-09-17T21:26:49.552Z,11.52
2022-09-17T21:29:17.098Z,11.45
2022-09-17T21:31:44.664Z,11.43
2022-09-17T21:34:13.296Z,11.36
2022-09-17T21:36:41.612Z,11.30
2022-09-17T21:39:16.588Z,11.35
2022-09-17T21:41:44.794Z,11.05
2022-09-17T21:44:12.121Z,11.31
2022-09-17T21:46:39.585Z,11.25
2022-09-17T21:49:06.441Z,11.15
2022-09-17T21:51:37.064Z,11.06
2022-09-17T21:54:06.837Z,11.00
2022-09-17T21:56:34.722Z,11.05
2022-09-17T21:59:04.136Z,10.99
2022-09-17T22:01:35.636Z,11.06
2022-09-17T22:04:02.562Z,10.90
2022-09-17T22:06:31.240Z,11.06
2022-09-17T22:08:59.660Z,10.96
2022-09-17T22:11:31.859Z,11.10
2022-09-17T22:14:04.964Z,11.09
2022-09-17T22:16:33.336Z,10.87
2022-09-17T22:18:59.947Z,10.89
2022-09-17T22:21:28.050Z,11.13
2022-09-17T22:23:57.516Z,11.17
2022-09-17T22:26:26.249Z,10.91
2022-09-17T22:28:53.296Z,11.17
2022-09-17T22:31:20.136Z,11.35
2022-09-17T22:33:49.933Z,11.43
2022-09-17T22:36:20.069Z,11.44
2022-09-17T22:38:51.937Z,11.39
2022-09-17T22:41:24.688Z,11.40
2022-09-17T22:44:02.163Z,11.29
2022-09-17T22:46:39.361Z,11.29
2022-09-17T22:49:09.651Z,11.36
2022-09-17T22:51:36.842Z,11.21
2022-09-17T22:54:04.381Z,11.15
2022-09-17T22:56:31.035Z,10.86
2022-09-17T22:58:58.672Z,11.12
2022-09-17T23:01:29.155Z,11.05
2022-09-17T23:03:56.562Z,10.74
2022-09-17T23:06:30.443Z,10.85
2022-09-17T23:08:57.653Z,11.15
2022-09-17T23:11:33.269Z,11.08
2022-09-17T23:14:02.402Z,11.18
2022-09-17T23:16:34.769Z,11.15
2022-09-17T23:19:01.372Z,11.02
2022-09-17T23:21:28.045Z,11.18
2022-09-17T23:23:54.820Z,11.20
2022-09-17T23:26:23.147Z,11.12
2022-09-17T23:28:50.732Z,11.30
2022-09-17T23:31:21.278Z,11.27
2022-09-17T23:33:48.711Z,10.82
2022-09-17T23:36:19.293Z,11.15
2022-09-17T23:38:47.469Z,10.38
2022-09-17T23:41:28.835Z,11.26
2022-09-17T23:43:57.798Z,11.20
2022-09-17T23:46:27.144Z,11.23
2022-09-17T23:48:53.903Z,11.21
2022-09-17T23:51:21.855Z,11.17
2022-09-17T23:53:48.898Z,10.85
2022-09-17T23:56:19.089Z,11.14
2022-09-17T23:58:45.692Z,11.09
